Time;durP1;ratioP1;P1;durP2;ratioP2;P2;SDS_P1;SDS_P2;PMS_P1;PMS_P2;Temp;Humidity;BMP_temperature;BMP_pressure;BME280_temperature;BME280_humidity;BME280_pressure;Samples;Min_cycle;Max_cycle;Signal;HPM_P1;HPM_P2
2022/05/25 00:04:09;;;;;;;4.72;4.53;;;;;;;;;;10429556;28;20275;-72
2022/05/25 00:09:10;;;;;;;4.43;4.25;;;;;;;;;;10465340;28;20202;-71
2022/05/25 00:14:11;;;;;;;4.20;4.00;;;;;;;;;;10434439;28;20194;-72
2022/05/25 00:24:32;;;;;;;3.78;3.63;;;;;;;;;;10431755;28;20310;-71
2022/05/25 00:29:33;;;;;;;4.25;4.05;;;;;;;;;;10436602;28;20206;-72
2022/05/25 00:34:34;;;;;;;4.13;3.97;;;;;;;;;;10468386;28;20210;-71
2022/05/25 00:39:35;;;;;;;5.25;4.95;;;;;;;;;;10438274;28;20612;-71
2022/05/25 00:44:36;;;;;;;4.78;4.57;;;;;;;;;;10471253;28;20205;-71
2022/05/25 00:49:38;;;;;;;4.45;4.25;;;;;;;;;;10456519;28;20598;-72
2022/05/25 00:54:44;;;;;;;4.10;4.00;;;;;;;;;;10472774;28;20224;-72
2022/05/25 00:59:58;;;;;;;5.70;5.25;;;;;;;;;;10472365;28;20295;-71
2022/05/25 01:04:59;;;;;;;4.88;4.70;;;;;;;;;;10446048;28;20250;-72
2022/05/25 01:10:00;;;;;;;5.60;5.30;;;;;;;;;;10435411;28;20245;-72
2022/05/25 01:15:09;;;;;;;5.28;5.00;;;;;;;;;;10452798;28;20297;-72
2022/05/25 01:20:34;;;;;;;5.38;5.13;;;;;;;;;;10451857;28;20217;-73
2022/05/25 01:25:54;;;;;;;4.50;4.30;;;;;;;;;;10459188;28;20214;-72
2022/05/25 01:30:56;;;;;;;5.10;4.80;;;;;;;;;;10429176;28;20782;-72
2022/05/25 01:36:01;;;;;;;5.70;5.43;;;;;;;;;;10463144;28;20801;-72
2022/05/25 01:41:05;;;;;;;5.00;4.78;;;;;;;;;;10464467;28;20237;-71
2022/05/25 01:46:09;;;;;;;5.70;5.30;;;;;;;;;;10450099;28;20263;-71
2022/05/25 01:51:13;;;;;;;4.90;4.63;;;;;;;;;;10470654;28;20211;-71
2022/05/25 01:56:16;;;;;;;4.05;3.85;;;;;;;;;;10470342;28;20893;-72
2022/05/25 02:01:17;;;;;;;3.72;3.63;;;;;;;;;;10451899;28;20225;-71
2022/05/25 02:06:27;;;;;;;4.72;4.45;;;;;;;;;;10452032;28;20225;-70
2022/05/25 02:11:37;;;;;;;4.18;3.92;;;;;;;;;;10467961;28;20243;-71
2022/05/25 02:16:51;;;;;;;4.80;4.55;;;;;;;;;;10444644;28;20302;-70
2022/05/25 02:21:58;;;;;;;4.20;4.10;;;;;;;;;;10436894;28;20198;-72
2022/05/25 02:27:02;;;;;;;3.58;3.47;;;;;;;;;;10451949;28;20193;-71
2022/05/25 02:32:12;;;;;;;3.92;3.65;;;;;;;;;;10451008;28;20221;-71
2022/05/25 02:37:14;;;;;;;3.80;3.70;;;;;;;;;;10450955;28;20280;-72
2022/05/25 02:42:16;;;;;;;4.47;4.28;;;;;;;;;;10466261;28;20198;-72
2022/05/25 02:47:17;;;;;;;4.30;4.15;;;;;;;;;;10448376;28;20245;-71
2022/05/25 02:52:18;;;;;;;4.88;4.57;;;;;;;;;;10464811;28;20764;-72
2022/05/25 02:57:19;;;;;;;4.65;4.43;;;;;;;;;;10459553;28;20201;-71
2022/05/25 03:02:21;;;;;;;4.43;4.20;;;;;;;;;;10428992;28;20222;-72
2022/05/25 03:07:22;;;;;;;2.80;2.75;;;;;;;;;;10433304;28;20229;-72
2022/05/25 03:12:23;;;;;;;4.18;4.00;;;;;;;;;;10468818;28;20214;-71
2022/05/25 03:17:24;;;;;;;3.90;3.75;;;;;;;;;;10446943;28;20213;-71
2022/05/25 03:22:25;;;;;;;3.10;2.92;;;;;;;;;;10468814;28;20209;-71
2022/05/25 03:27:26;;;;;;;3.60;3.40;;;;;;;;;;10450998;28;20212;-72
2022/05/25 03:32:27;;;;;;;3.45;3.35;;;;;;;;;;10449224;28;20573;-71
2022/05/25 03:37:29;;;;;;;3.25;2.95;;;;;;;;;;10461067;28;20211;-71
2022/05/25 03:42:30;;;;;;;2.80;2.80;;;;;;;;;;10448648;28;20473;-71
2022/05/25 03:47:32;;;;;;;3.45;3.33;;;;;;;;;;10455324;28;20541;-72
2022/05/25 03:52:33;;;;;;;3.63;3.53;;;;;;;;;;10441200;28;20223;-71
2022/05/25 03:57:34;;;;;;;3.15;3.05;;;;;;;;;;10446658;28;20200;-72
2022/05/25 04:02:35;;;;;;;3.83;3.72;;;;;;;;;;10461600;28;20219;-72
2022/05/25 04:07:38;;;;;;;3.90;3.80;;;;;;;;;;10465476;28;20240;-72
2022/05/25 04:12:43;;;;;;;3.55;3.38;;;;;;;;;;10447375;28;20203;-72
2022/05/25 04:17:44;;;;;;;3.10;3.00;;;;;;;;;;10436261;28;20753;-72
2022/05/25 04:22:45;;;;;;;2.92;2.80;;;;;;;;;;10466294;28;20245;-72
2022/05/25 04:27:47;;;;;;;2.10;2.10;;;;;;;;;;10461888;28;20221;-72
2022/05/25 04:32:48;;;;;;;2.22;2.13;;;;;;;;;;10450791;28;20210;-72
2022/05/25 04:37:49;;;;;;;2.28;2.17;;;;;;;;;;10452716;28;20285;-71
2022/05/25 04:42:51;;;;;;;2.33;2.28;;;;;;;;;;10448026;28;20194;-71
2022/05/25 04:47:52;;;;;;;2.20;2.05;;;;;;;;;;10446619;28;20207;-72
2022/05/25 04:52:56;;;;;;;2.38;2.25;;;;;;;;;;10448808;28;20286;-71
2022/05/25 04:57:57;;;;;;;3.13;2.55;;;;;;;;;;10464782;28;20216;-71
2022/05/25 05:02:58;;;;;;;2.00;1.90;;;;;;;;;;10449347;28;20317;-71
2022/05/25 05:07:59;;;;;;;1.77;1.77;;;;;;;;;;10472429;28;20214;-71
2022/05/25 05:13:07;;;;;;;2.70;2.58;;;;;;;;;;10470990;28;20709;-72
2022/05/25 05:18:09;;;;;;;3.17;1.90;;;;;;;;;;10474246;28;20224;-72
2022/05/25 05:23:43;;;;;;;2.20;2.10;;;;;;;;;;10423938;28;20217;-71
2022/05/25 05:28:45;;;;;;;2.00;1.90;;;;;;;;;;10447658;28;20877;-71
2022/05/25 05:33:46;;;;;;;2.20;2.10;;;;;;;;;;10413065;28;20218;-71
2022/05/25 05:38:50;;;;;;;2.17;2.17;;;;;;;;;;10456512;28;20885;-71
2022/05/25 05:43:52;;;;;;;2.60;2.60;;;;;;;;;;10454060;28;20257;-72
2022/05/25 05:48:53;;;;;;;2.20;2.20;;;;;;;;;;10451960;28;20206;-72
2022/05/25 05:53:54;;;;;;;4.00;3.03;;;;;;;;;;10429984;28;20211;-71
2022/05/25 05:58:55;;;;;;;2.33;2.25;;;;;;;;;;10431795;28;21113;-72
2022/05/25 06:03:56;;;;;;;5.05;2.33;;;;;;;;;;10461759;28;20244;-72
2022/05/25 06:08:57;;;;;;;2.53;1.60;;;;;;;;;;10439669;28;20932;-71
2022/05/25 06:13:58;;;;;;;2.05;1.95;;;;;;;;;;10460301;28;20206;-71
2022/05/25 06:24:19;;;;;;;2.05;1.95;;;;;;;;;;10452513;28;20263;-71
2022/05/25 06:29:21;;;;;;;2.83;2.72;;;;;;;;;;10471759;28;20221;-70
2022/05/25 06:34:22;;;;;;;3.35;3.10;;;;;;;;;;10468074;28;20253;-71
2022/05/25 06:39:23;;;;;;;2.55;2.45;;;;;;;;;;10424140;28;20211;-71
2022/05/25 06:44:24;;;;;;;2.78;2.60;;;;;;;;;;10442582;28;20202;-71
2022/05/25 06:49:25;;;;;;;2.97;2.78;;;;;;;;;;10452118;28;20289;-70
2022/05/25 06:54:26;;;;;;;3.00;2.90;;;;;;;;;;10464865;28;20206;-71
2022/05/25 06:59:27;;;;;;;3.55;3.40;;;;;;;;;;10457460;28;20680;-72
2022/05/25 07:04:28;;;;;;;3.58;3.08;;;;;;;;;;10434447;28;20377;-73
2022/05/25 07:09:31;;;;;;;4.85;2.97;;;;;;;;;;10428293;28;20210;-71
2022/05/25 07:14:32;;;;;;;2.83;2.63;;;;;;;;;;10453655;28;20229;-73
2022/05/25 07:19:33;;;;;;;3.75;2.90;;;;;;;;;;10454969;28;20202;-72
2022/05/25 07:24:34;;;;;;;3.53;3.33;;;;;;;;;;10448465;28;20217;-72
2022/05/25 07:29:35;;;;;;;5.20;3.38;;;;;;;;;;10427855;28;20308;-72
2022/05/25 07:34:45;;;;;;;3.38;3.20;;;;;;;;;;10426959;28;20255;-72
2022/05/25 07:39:49;;;;;;;3.20;3.05;;;;;;;;;;10464689;28;20202;-71
2022/05/25 07:44:57;;;;;;;2.60;2.45;;;;;;;;;;10448679;28;20220;-71
2022/05/25 07:49:59;;;;;;;3.33;2.83;;;;;;;;;;10444650;28;20222;-72
2022/05/25 07:55:00;;;;;;;2.90;2.70;;;;;;;;;;10402329;28;20206;-72
2022/05/25 08:00:01;;;;;;;2.88;2.60;;;;;;;;;;10450330;28;20202;-71
2022/05/25 08:10:24;;;;;;;2.58;2.47;;;;;;;;;;10411561;28;20211;-73
2022/05/25 08:15:26;;;;;;;2.70;2.50;;;;;;;;;;10409066;28;20207;-71
2022/05/25 08:20:30;;;;;;;3.25;3.15;;;;;;;;;;10405788;28;20203;-72
2022/05/25 08:25:31;;;;;;;4.72;2.58;;;;;;;;;;10405528;28;20210;-72
2022/05/25 08:30:33;;;;;;;3.03;2.85;;;;;;;;;;10406048;28;20221;-71
2022/05/25 08:35:35;;;;;;;2.75;2.55;;;;;;;;;;10424999;28;20214;-73
2022/05/25 08:40:36;;;;;;;2.42;2.33;;;;;;;;;;10405775;28;20294;-71
2022/05/25 08:45:41;;;;;;;2.75;2.22;;;;;;;;;;10403613;28;20218;-72
2022/05/25 08:50:42;;;;;;;2.30;1.85;;;;;;;;;;10410080;28;20254;-71
2022/05/25 08:56:06;;;;;;;2.55;1.35;;;;;;;;;;10435500;28;20229;-71
2022/05/25 09:01:08;;;;;;;1.42;1.38;;;;;;;;;;10453802;28;20236;-75
2022/05/25 09:06:12;;;;;;;2.10;2.00;;;;;;;;;;10473292;28;20218;-74
2022/05/25 09:11:15;;;;;;;5.45;2.00;;;;;;;;;;10455577;28;20207;-75
2022/05/25 09:16:17;;;;;;;1.60;1.10;;;;;;;;;;10433106;28;20207;-74
2022/05/25 09:21:20;;;;;;;1.00;1.00;;;;;;;;;;10446570;28;20698;-75
2022/05/25 09:26:21;;;;;;;1.20;1.20;;;;;;;;;;10439285;28;20194;-75
2022/05/25 09:31:25;;;;;;;1.63;1.50;;;;;;;;;;10429993;28;20309;-74
2022/05/25 09:36:47;;;;;;;4.25;1.23;;;;;;;;;;10454555;28;20202;-74
2022/05/25 09:41:54;;;;;;;1.40;1.33;;;;;;;;;;10439388;28;20198;-76
2022/05/25 09:46:57;;;;;;;1.15;1.08;;;;;;;;;;10471552;28;20800;-76
2022/05/25 09:52:02;;;;;;;1.23;1.13;;;;;;;;;;10452352;28;20214;-76
2022/05/25 09:57:21;;;;;;;1.33;1.00;;;;;;;;;;10471010;28;20237;-74
2022/05/25 10:02:37;;;;;;;0.70;0.70;;;;;;;;;;10453774;28;20218;-76
2022/05/25 10:07:42;;;;;;;0.80;0.80;;;;;;;;;;10440502;28;20233;-75
2022/05/25 10:12:45;;;;;;;0.55;0.55;;;;;;;;;;10451360;28;20214;-77
2022/05/25 10:17:47;;;;;;;0.63;0.63;;;;;;;;;;10449534;28;20202;-76
2022/05/25 10:22:51;;;;;;;1.83;0.70;;;;;;;;;;10433903;28;20209;-74
2022/05/25 10:27:52;;;;;;;2.60;0.73;;;;;;;;;;10451223;28;20636;-74
2022/05/25 10:38:20;;;;;;;0.50;0.50;;;;;;;;;;10468012;28;20196;-76
2022/05/25 10:43:27;;;;;;;0.40;0.40;;;;;;;;;;10461424;28;20306;-76
2022/05/25 10:48:47;;;;;;;1.85;0.60;;;;;;;;;;10447615;28;20206;-77
2022/05/25 10:59:26;;;;;;;1.30;0.60;;;;;;;;;;10448809;28;20734;-76
2022/05/25 11:04:42;;;;;;;1.20;0.60;;;;;;;;;;10432915;28;20234;-77
2022/05/25 11:10:02;;;;;;;0.40;0.40;;;;;;;;;;10433465;28;20206;-76
2022/05/25 11:15:03;;;;;;;0.52;0.40;;;;;;;;;;10434643;28;20233;-76
2022/05/25 11:20:10;;;;;;;0.40;0.40;;;;;;;;;;10423663;28;20216;-75
2022/05/25 11:25:11;;;;;;;1.58;0.50;;;;;;;;;;10445291;28;20233;-76
2022/05/25 11:30:15;;;;;;;0.85;0.40;;;;;;;;;;10433300;28;20292;-78
2022/05/25 11:35:39;;;;;;;2.08;0.30;;;;;;;;;;10465820;28;20586;-79
2022/05/25 11:40:59;;;;;;;0.65;0.63;;;;;;;;;;10466027;28;20209;-78
2022/05/25 11:46:12;;;;;;;0.50;0.30;;;;;;;;;;10434819;28;20236;-77
2022/05/25 11:51:32;;;;;;;0.52;0.30;;;;;;;;;;10467688;28;20684;-77
2022/05/25 11:56:45;;;;;;;0.55;0.30;;;;;;;;;;10435064;28;21215;-78
2022/05/25 12:01:58;;;;;;;0.98;0.43;;;;;;;;;;10467147;28;20241;-76
2022/05/25 12:07:11;;;;;;;0.30;0.30;;;;;;;;;;10448759;28;20225;-75
2022/05/25 12:12:30;;;;;;;0.32;0.32;;;;;;;;;;10452793;28;20206;-75
2022/05/25 12:17:50;;;;;;;0.40;0.40;;;;;;;;;;10446439;28;21514;-76
2022/05/25 12:22:52;;;;;;;1.85;0.30;;;;;;;;;;10437345;28;20264;-76
2022/05/25 12:27:55;;;;;;;0.57;0.30;;;;;;;;;;10443154;28;20217;-75
2022/05/25 12:32:58;;;;;;;2.17;0.47;;;;;;;;;;10455696;28;20214;-75
2022/05/25 12:38:08;;;;;;;0.77;0.32;;;;;;;;;;10448157;28;20897;-76
2022/05/25 12:43:37;;;;;;;2.22;0.20;;;;;;;;;;10459986;28;20229;-76
2022/05/25 12:48:47;;;;;;;0.22;0.22;;;;;;;;;;10446699;28;20215;-77
2022/05/25 12:53:57;;;;;;;0.22;0.22;;;;;;;;;;10444194;28;20241;-77
2022/05/25 12:59:00;;;;;;;0.30;0.30;;;;;;;;;;10443401;28;20214;-75
2022/05/25 13:04:16;;;;;;;0.30;0.30;;;;;;;;;;10435113;28;20261;-77
2022/05/25 13:09:17;;;;;;;0.20;0.20;;;;;;;;;;10429892;28;20678;-76
2022/05/25 13:14:20;;;;;;;0.30;0.30;;;;;;;;;;10411776;28;20220;-77
2022/05/25 13:19:21;;;;;;;0.20;0.20;;;;;;;;;;10445135;28;20198;-78
2022/05/25 13:24:25;;;;;;;0.22;0.22;;;;;;;;;;10465595;28;20685;-78
2022/05/25 13:29:45;;;;;;;0.45;0.32;;;;;;;;;;10451852;28;20262;-77
2022/05/25 13:34:46;;;;;;;0.63;0.22;;;;;;;;;;10402165;28;20222;-76
2022/05/25 13:39:47;;;;;;;0.20;0.20;;;;;;;;;;10448136;28;20297;-78
2022/05/25 13:44:50;;;;;;;0.45;0.30;;;;;;;;;;10474141;28;20682;-78
2022/05/25 13:49:52;;;;;;;0.93;0.25;;;;;;;;;;10456831;28;20214;-77
2022/05/25 13:55:02;;;;;;;1.70;0.25;;;;;;;;;;10471160;28;20198;-77
2022/05/25 14:00:20;;;;;;;0.20;0.20;;;;;;;;;;10472713;28;20201;-77
2022/05/25 14:05:23;;;;;;;0.30;0.30;;;;;;;;;;10444424;28;20287;-77
2022/05/25 14:15:54;;;;;;;0.50;0.20;;;;;;;;;;10440413;28;20199;-77
2022/05/25 14:20:56;;;;;;;2.33;0.30;;;;;;;;;;10459993;28;20206;-77
2022/05/25 14:26:02;;;;;;;0.20;0.20;;;;;;;;;;10449361;28;20225;-76
2022/05/25 14:31:04;;;;;;;0.52;0.30;;;;;;;;;;10451544;28;20285;-76
2022/05/25 14:36:05;;;;;;;0.30;0.30;;;;;;;;;;10470422;28;20206;-76
2022/05/25 14:41:24;;;;;;;1.77;0.28;;;;;;;;;;10447912;28;20492;-77
2022/05/25 14:46:27;;;;;;;0.40;0.40;;;;;;;;;;10449347;28;20197;-77
2022/05/25 14:51:31;;;;;;;0.60;0.30;;;;;;;;;;10408614;28;20236;-76
2022/05/25 14:56:33;;;;;;;0.80;0.20;;;;;;;;;;10458303;28;20532;-77
2022/05/25 15:01:35;;;;;;;0.40;0.40;;;;;;;;;;10451282;28;20367;-77
2022/05/25 15:06:43;;;;;;;0.40;0.30;;;;;;;;;;10450912;28;20261;-77
2022/05/25 15:11:44;;;;;;;0.30;0.30;;;;;;;;;;10467067;28;20232;-76
2022/05/25 15:22:28;;;;;;;1.30;0.22;;;;;;;;;;10463535;28;20206;-76
2022/05/25 15:27:33;;;;;;;0.30;0.25;;;;;;;;;;10464412;28;20312;-77
2022/05/25 15:32:34;;;;;;;0.80;0.30;;;;;;;;;;10460308;28;20245;-77
2022/05/25 15:37:35;;;;;;;0.20;0.20;;;;;;;;;;10448759;28;20293;-76
2022/05/25 15:42:36;;;;;;;3.13;0.30;;;;;;;;;;10451246;28;20198;-76
2022/05/25 15:47:37;;;;;;;1.55;0.30;;;;;;;;;;10455392;28;20722;-76
2022/05/25 15:52:38;;;;;;;0.52;0.30;;;;;;;;;;10448693;28;20287;-76
2022/05/25 15:57:40;;;;;;;1.30;0.50;;;;;;;;;;10445499;28;20899;-77
2022/05/25 16:02:42;;;;;;;0.40;0.40;;;;;;;;;;10428773;28;20221;-76
2022/05/25 16:13:03;;;;;;;0.75;0.30;;;;;;;;;;10447806;28;20206;-76
2022/05/25 16:18:04;;;;;;;1.75;0.40;;;;;;;;;;10424711;28;20312;-77
2022/05/25 16:23:05;;;;;;;0.30;0.30;;;;;;;;;;10459374;28;20201;-77
2022/05/25 16:28:06;;;;;;;0.30;0.30;;;;;;;;;;10460909;28;20594;-76
2022/05/25 16:33:08;;;;;;;0.30;0.30;;;;;;;;;;10449500;28;20214;-76
2022/05/25 16:38:09;;;;;;;0.30;0.30;;;;;;;;;;10459743;28;20205;-76
2022/05/25 16:43:10;;;;;;;0.30;0.30;;;;;;;;;;10465419;28;20202;-76
2022/05/25 16:48:11;;;;;;;0.28;0.20;;;;;;;;;;10427016;28;20215;-77
2022/05/25 16:53:12;;;;;;;0.73;0.30;;;;;;;;;;10445727;28;20198;-74
2022/05/25 16:58:13;;;;;;;2.17;0.30;;;;;;;;;;10460611;28;20202;-77
2022/05/25 17:03:15;;;;;;;1.95;0.30;;;;;;;;;;10441360;28;20705;-77
2022/05/25 17:08:16;;;;;;;0.30;0.30;;;;;;;;;;10452257;28;21078;-76
2022/05/25 17:13:17;;;;;;;0.28;0.20;;;;;;;;;;10440303;28;20212;-77
2022/05/25 17:18:18;;;;;;;0.30;0.30;;;;;;;;;;10449188;28;20209;-76
2022/05/25 17:23:19;;;;;;;0.20;0.20;;;;;;;;;;10455833;28;20201;-77
2022/05/25 17:28:20;;;;;;;0.80;0.38;;;;;;;;;;10454978;28;20210;-76
2022/05/25 17:33:24;;;;;;;0.40;0.40;;;;;;;;;;10474358;28;20246;-76
2022/05/25 17:43:44;;;;;;;0.52;0.52;;;;;;;;;;10465238;28;21182;-76
2022/05/25 17:48:45;;;;;;;1.92;0.20;;;;;;;;;;10449348;28;20210;-76
2022/05/25 17:53:46;;;;;;;0.30;0.30;;;;;;;;;;10457134;28;20202;-75
2022/05/25 17:58:47;;;;;;;0.20;0.20;;;;;;;;;;10441240;28;20640;-76
2022/05/25 18:03:49;;;;;;;0.30;0.30;;;;;;;;;;10450166;28;20248;-75
2022/05/25 18:08:50;;;;;;;0.30;0.30;;;;;;;;;;10470484;28;20209;-77
2022/05/25 18:13:51;;;;;;;0.30;0.30;;;;;;;;;;10467903;28;20313;-75
2022/05/25 18:18:52;;;;;;;0.35;0.30;;;;;;;;;;10448655;28;20210;-77
2022/05/25 18:23:53;;;;;;;0.20;0.20;;;;;;;;;;10447228;28;20202;-77
2022/05/25 18:28:54;;;;;;;1.00;0.20;;;;;;;;;;10439472;28;20222;-78
2022/05/25 18:33:55;;;;;;;0.25;0.20;;;;;;;;;;10414079;28;20211;-77
2022/05/25 18:38:57;;;;;;;0.20;0.20;;;;;;;;;;10449662;28;20198;-77
2022/05/25 18:43:58;;;;;;;1.48;0.30;;;;;;;;;;10445177;28;20293;-77
2022/05/25 18:48:59;;;;;;;0.50;0.47;;;;;;;;;;10464170;28;20225;-76
2022/05/25 18:54:01;;;;;;;0.88;0.40;;;;;;;;;;10464707;28;20202;-78
2022/05/25 18:59:03;;;;;;;0.20;0.20;;;;;;;;;;10447289;28;20587;-77
2022/05/25 19:04:04;;;;;;;0.20;0.20;;;;;;;;;;10464365;28;20238;-73
2022/05/25 19:09:06;;;;;;;6.13;0.40;;;;;;;;;;10460196;28;21000;-73
2022/05/25 19:14:09;;;;;;;0.20;0.20;;;;;;;;;;10426817;28;20263;-74
2022/05/25 19:19:10;;;;;;;0.50;0.30;;;;;;;;;;10451074;28;20274;-73
2022/05/25 19:24:14;;;;;;;2.30;0.30;;;;;;;;;;10449934;28;20213;-72
2022/05/25 19:29:15;;;;;;;0.30;0.30;;;;;;;;;;10464463;28;20240;-73
2022/05/25 19:34:16;;;;;;;0.40;0.40;;;;;;;;;;10446798;28;20645;-72
2022/05/25 19:39:17;;;;;;;0.22;0.22;;;;;;;;;;10445896;28;20196;-72
2022/05/25 19:44:22;;;;;;;0.35;0.20;;;;;;;;;;10440382;28;20289;-73
2022/05/25 19:54:43;;;;;;;2.35;0.22;;;;;;;;;;10438678;28;20717;-72
2022/05/25 19:59:44;;;;;;;0.30;0.30;;;;;;;;;;10429544;28;20213;-72
2022/05/25 20:04:45;;;;;;;0.30;0.28;;;;;;;;;;10467171;28;20252;-72
2022/05/25 20:09:46;;;;;;;0.25;0.25;;;;;;;;;;10466614;28;20217;-73
2022/05/25 20:14:47;;;;;;;0.82;0.32;;;;;;;;;;10444581;28;20205;-72
2022/05/25 20:19:49;;;;;;;0.30;0.30;;;;;;;;;;10430592;28;20198;-72
2022/05/25 20:24:50;;;;;;;0.30;0.30;;;;;;;;;;10463316;28;20500;-73
2022/05/25 20:29:51;;;;;;;2.72;0.40;;;;;;;;;;10418902;28;20202;-72
2022/05/25 20:34:53;;;;;;;0.22;0.10;;;;;;;;;;10438289;28;20214;-72
2022/05/25 20:39:54;;;;;;;0.30;0.30;;;;;;;;;;10451719;28;20237;-72
2022/05/25 20:44:55;;;;;;;0.63;0.40;;;;;;;;;;10474155;28;20205;-73
2022/05/25 20:49:57;;;;;;;1.50;0.40;;;;;;;;;;10466922;28;20619;-72
2022/05/25 20:54:59;;;;;;;0.35;0.25;;;;;;;;;;10474077;28;20232;-72
2022/05/25 21:00:01;;;;;;;1.10;0.20;;;;;;;;;;10454110;28;20602;-72
2022/05/25 21:05:04;;;;;;;0.20;0.20;;;;;;;;;;10422834;28;20301;-72
2022/05/25 21:10:06;;;;;;;1.35;0.30;;;;;;;;;;10450420;28;20202;-73
2022/05/25 21:15:08;;;;;;;0.50;0.28;;;;;;;;;;10458638;28;20317;-72
2022/05/25 21:20:10;;;;;;;0.30;0.30;;;;;;;;;;10458735;28;20210;-72
2022/05/25 21:25:12;;;;;;;1.55;0.25;;;;;;;;;;10442885;28;20252;-73
2022/05/25 21:32:50;;;;;;;0.30;0.30;;;;;;;;;;10460773;28;20664;-73
2022/05/25 21:35:34;;;;;;;1.35;0.30;;;;;;;;;;10452243;28;20234;-72
2022/05/25 21:40:35;;;;;;;1.45;0.30;;;;;;;;;;10460965;28;20201;-73
2022/05/25 21:45:36;;;;;;;0.30;0.30;;;;;;;;;;10437950;28;20213;-71
2022/05/25 21:50:38;;;;;;;0.93;0.40;;;;;;;;;;10463987;28;20218;-73
2022/05/25 21:55:39;;;;;;;0.28;0.28;;;;;;;;;;10473878;28;20235;-73
2022/05/25 22:00:42;;;;;;;1.55;0.35;;;;;;;;;;10436604;28;20218;-73
2022/05/25 22:05:43;;;;;;;0.80;0.40;;;;;;;;;;10456319;28;20833;-73
2022/05/25 22:10:44;;;;;;;0.55;0.40;;;;;;;;;;10421531;28;20272;-72
2022/05/25 22:15:45;;;;;;;0.50;0.50;;;;;;;;;;10434585;28;20814;-72
2022/05/25 22:20:46;;;;;;;1.83;0.55;;;;;;;;;;10461858;28;20263;-71
2022/05/25 22:25:47;;;;;;;1.00;0.40;;;;;;;;;;10445163;28;20207;-74
2022/05/25 22:30:49;;;;;;;1.20;0.40;;;;;;;;;;10453942;28;20754;-73
2022/05/25 22:35:50;;;;;;;1.05;0.40;;;;;;;;;;10444508;28;20882;-72
2022/05/25 22:40:51;;;;;;;0.70;0.30;;;;;;;;;;10431868;28;20205;-73
2022/05/25 22:45:52;;;;;;;2.53;0.50;;;;;;;;;;10458075;28;20251;-72
2022/05/25 22:50:53;;;;;;;2.03;0.63;;;;;;;;;;10459349;28;20221;-75
2022/05/25 22:55:55;;;;;;;4.18;0.40;;;;;;;;;;10451707;28;20202;-71
2022/05/25 23:00:56;;;;;;;1.65;0.50;;;;;;;;;;10442616;28;20218;-71
2022/05/25 23:05:58;;;;;;;1.00;0.52;;;;;;;;;;10449810;28;20238;-73
2022/05/25 23:10:59;;;;;;;1.38;0.50;;;;;;;;;;10456533;28;20742;-72
2022/05/25 23:16:04;;;;;;;2.58;0.30;;;;;;;;;;10464969;28;20875;-72
2022/05/25 23:21:06;;;;;;;0.40;0.40;;;;;;;;;;10448234;28;20182;-73
2022/05/25 23:26:07;;;;;;;0.52;0.30;;;;;;;;;;10439727;28;20301;-71
2022/05/25 23:31:10;;;;;;;0.30;0.30;;;;;;;;;;10438197;28;20214;-73
2022/05/25 23:36:11;;;;;;;0.63;0.32;;;;;;;;;;10438298;28;20207;-71
2022/05/25 23:46:32;;;;;;;0.30;0.30;;;;;;;;;;10465714;28;20206;-73
2022/05/25 23:51:34;;;;;;;1.60;0.50;;;;;;;;;;10463290;28;20978;-72
2022/05/25 23:56:35;;;;;;;3.95;0.32;;;;;;;;;;10441270;28;20209;-72
